Portada
METAR-TAF:

METAR-TAF

Aeroports :

Puerto Escondido, Mèxic

latitud: 15-52N, longitud: 097-05W, altitud: 88 m

Observació

L'informe es va fer fa 9 hores i 20 minuts, a les 02:52 UTC
Vent calma
Temperatura 28°C
Humitat 84%
Pressió 1011 hPa
Visibilitat: 16.1 km
Núvols disperses a una alçada de 7000 ft

METAR: MMPS 180252Z 00000KT 10SM SCT070 28/25 A2984 RMK 8/060

Hora: 06:12 (12:12 UTC)

Pronòstic

L'informe es va fer fa 7 hores i 56 minuts, a les 04:16 UTC
Pronòstic vàlid del 18 a les 06 UTC al 19 a les 06 UTC
Vent kt del Nord
Visibilitat: 10 km
Núvols disperses a una alçada de 8000 ft
A partir de les 18 a les 1800 UTC
Vent 10 kt del Sud
Visibilitat: 10 km
Núvols disperses a una alçada de 3000 ft
Cel ennuvolat a una alçada de 8000 ft
A partir de les 19 a les 0500 UTC
Vent kt del Nord
Visibilitat: 10 km
Núvols disperses a una alçada de 8000 ft

TAF: MMPS 180416Z 1806/1906 00000KT P6SM SCT080 FM181800 18010KT P6SM SCT030 BKN080 FM190500 00000KT P6SM SCT080

Observacions i pronòstics meteorològics de més de 4000 aeroports (METAR i TAF).

Les estacions disponibles són els punts grocs i vermells al mapa.

Posi el ratolí al punt desitjat per veure el nom de l'estació.

Feu clic per veure les observacions i els pronòstics meteorològics.

Per canviar el mapa: feu clic els botons verds amb una creu de color negre per apropar; al botó verd amb un guió per allunyar la imatge; o en les fletxes verdes per a mapes adjacents.


METAR-TAF: